OPA Logo
 

ASOS: KRDM
At:2018.10.21 0056 UTC
Wind:310° @ 7KT
Viz: 10 mile(s)
Sky: clear
Temp: 68.0 F (20.0 C)
DewP: 32.0 F (0.0 C)
RH: 26%
Baro: 30.03 in.
ob: KRDM 210056Z 31007KT 10SM CLR 20/00 A3003 RMK AO2 SLP165 T02000000
Apache-SSL Logo

Valid HTML 4.01!

Central Oregon OPA Chapter

Upcoming Fly Outs


2004

June

12 Bend, OR - Flying Festival - Bend Airport

Other Fly-Out pages

Oregon Pilots Association Events Calendar

Washington Pilots Association Events

Past Fly Outs


Caldwell, ID and the Kitfox factory February 2002

XMAS Party 2001

Pasco, WA November 2001

Bend Airport Open House 2001

Flyout May 2001 to Flying M Ranch

Flyout April 2001 to Tillamook Air Museum


Web page by: gem@rellim.com